Cayley, Canada
Current Conditions -  °F | °C
As of 11:00 AM on Sunday 25 Jan 2015 (Local Time) from CYYC Reporting Station
Broken Clouds Broken Clouds  
Wind Chill: 54°   Ceiling: 22000
Heat Index: 54°   Visibility: 40mi
Dew Point: 30°   Wind: 8mph
Humidity: 41%   Direction: 230°SW
Pressure: 29.81"   Gusts: NA
Location:  50.45°N, 113.85°W
Report Text: CYYC 251800Z 23007KT 40SM FEW060 FEW160 BKN220 12/M01 A2981 RMK NS1AC2CI3 NS TR SLP116 DENSITY ALT 4200FT
Loading
Personal Weather Stations






























Interactive Weather Map New forecast layout! Learn more

10-Day Weather Forecast

Advertisements
Track Severe Weather on mobile